createdAt,value
2023-03-23T15:58:45.674Z,15.38
2023-03-23T16:01:15.835Z,11.45
2023-03-23T16:04:05.854Z,14.98
2023-03-23T16:06:34.276Z,16.65
2023-03-23T16:09:01.650Z,15.25
2023-03-23T16:11:33.918Z,14.93
2023-03-23T16:14:01.821Z,16.35
2023-03-23T16:16:32.462Z,13.27
2023-03-23T16:19:00.149Z,17.17
2023-03-23T16:21:27.780Z,15.77
2023-03-23T16:23:55.860Z,16.33
2023-03-23T16:26:23.810Z,15.73
2023-03-23T16:28:53.278Z,13.57
2023-03-23T16:31:23.310Z,20.70
2023-03-23T16:33:50.789Z,18.17
2023-03-23T16:36:18.046Z,21.88
2023-03-23T16:38:49.545Z,17.75
2023-03-23T16:43:46.137Z,17.05
2023-03-23T16:46:14.417Z,16.48
2023-03-23T16:48:42.104Z,16.20
2023-03-23T16:51:12.036Z,15.13
2023-03-23T16:53:39.958Z,15.70
2023-03-23T16:56:07.311Z,14.48
2023-03-23T16:58:36.584Z,14.38
2023-03-23T17:01:04.124Z,15.07
2023-03-23T17:03:37.352Z,14.82
2023-03-23T17:06:05.835Z,13.82
2023-03-23T17:08:33.212Z,13.32
2023-03-23T17:11:06.754Z,18.27
2023-03-23T17:13:34.640Z,22.63
2023-03-23T17:16:01.889Z,25.30
2023-03-23T17:18:29.386Z,25.52
2023-03-23T17:20:57.469Z,25.85
2023-03-23T17:23:24.831Z,24.77
2023-03-23T17:25:52.133Z,24.20
2023-03-23T17:28:20.852Z,25.30
2023-03-23T17:30:51.277Z,25.20
2023-03-23T17:33:25.331Z,21.80
2023-03-23T17:35:52.743Z,22.35
2023-03-23T17:38:20.806Z,23.15
2023-03-23T17:40:48.161Z,19.98
2023-03-23T17:43:20.603Z,19.75
2023-03-23T17:45:48.288Z,17.50
2023-03-23T17:48:15.859Z,17.77
2023-03-23T17:50:47.221Z,18.10
2023-03-23T17:53:14.922Z,16.13
2023-03-23T17:55:43.537Z,15.32
2023-03-23T17:58:12.189Z,14.57
2023-03-23T18:00:39.469Z,16.05
2023-03-23T18:03:06.834Z,15.80
2023-03-23T18:05:35.331Z,16.38
2023-03-23T18:08:02.615Z,15.77
2023-03-23T18:10:35.605Z,14.95
2023-03-23T18:13:03.717Z,15.65
2023-03-23T18:15:33.442Z,17.60
2023-03-23T18:18:03.553Z,16.88
2023-03-23T18:20:31.887Z,17.83
2023-03-23T18:22:59.310Z,14.80
2023-03-23T18:25:27.235Z,15.68
2023-03-23T18:27:54.544Z,15.38
2023-03-23T18:30:22.584Z,14.95
2023-03-23T18:32:50.675Z,14.50
2023-03-23T18:35:18.171Z,16.30
2023-03-23T18:37:47.883Z,13.25
2023-03-23T18:40:15.725Z,12.40
2023-03-23T18:42:44.994Z,12.63
2023-03-23T18:45:12.327Z,13.95
2023-03-23T18:47:39.677Z,12.38
2023-03-23T18:50:08.145Z,14.18
2023-03-23T18:52:37.900Z,13.05
2023-03-23T18:55:05.964Z,15.15
2023-03-23T18:57:39.376Z,14.15
2023-03-23T19:00:08.267Z,14.77
2023-03-23T19:02:36.262Z,16.30
2023-03-23T19:05:07.724Z,15.63
2023-03-23T19:07:35.890Z,15.48
2023-03-23T19:10:03.274Z,16.40
2023-03-23T19:12:32.159Z,16.08
2023-03-23T19:14:59.552Z,17.85
2023-03-23T19:17:27.112Z,18.58
2023-03-23T19:19:58.904Z,19.50
2023-03-23T19:22:26.103Z,22.23
2023-03-23T19:24:53.311Z,24.27
2023-03-23T19:27:21.048Z,21.50
2023-03-23T19:29:49.119Z,23.90
2023-03-23T19:32:18.646Z,24.13
2023-03-23T19:34:50.692Z,24.52
2023-03-23T19:37:18.760Z,25.67
2023-03-23T19:39:47.114Z,24.85
2023-03-23T19:42:16.923Z,25.63
2023-03-23T19:44:44.835Z,23.17
2023-03-23T19:47:12.663Z,23.05
2023-03-23T19:49:45.600Z,23.20
2023-03-23T19:52:14.963Z,22.95
2023-03-23T19:54:43.758Z,20.92
2023-03-23T19:57:11.273Z,20.15
2023-03-23T19:59:39.243Z,18.50
2023-03-23T20:02:07.119Z,18.13
2023-03-23T20:04:35.347Z,19.13
2023-03-23T20:07:06.935Z,17.25
2023-03-23T20:09:35.215Z,18.95
2023-03-23T20:12:05.148Z,17.20
2023-03-23T20:14:34.149Z,17.60
2023-03-23T20:17:01.772Z,17.30
2023-03-23T20:19:29.157Z,16.73
2023-03-23T20:21:57.331Z,15.80
2023-03-23T20:24:24.956Z,16.30
2023-03-23T20:26:52.864Z,16.55
2023-03-23T20:29:20.521Z,16.27
2023-03-23T20:31:50.881Z,16.58
2023-03-23T20:34:28.957Z,15.15
2023-03-23T20:36:58.153Z,15.23
2023-03-23T20:39:30.576Z,13.35
2023-03-23T20:41:59.311Z,15.23
2023-03-23T20:44:29.433Z,13.57
2023-03-23T20:46:59.711Z,13.73
2023-03-23T20:49:27.706Z,13.27
2023-03-23T20:51:55.631Z,13.15
2023-03-23T20:54:24.547Z,13.77
2023-03-23T20:56:53.288Z,17.27
2023-03-23T20:59:21.593Z,16.60
2023-03-23T21:01:50.547Z,19.02
2023-03-23T21:04:19.372Z,19.20
2023-03-23T21:06:49.033Z,18.85
2023-03-23T21:09:17.393Z,22.73
2023-03-23T21:11:47.420Z,27.40
2023-03-23T21:14:16.431Z,19.25
2023-03-23T21:16:44.018Z,22.95
2023-03-23T21:19:12.188Z,35.55
2023-03-23T21:21:56.780Z,32.25
2023-03-23T21:24:28.837Z,28.88
2023-03-23T21:26:59.358Z,32.83
2023-03-23T21:29:27.723Z,39.25
2023-03-23T21:32:07.658Z,47.63
2023-03-23T21:34:37.007Z,46.55
2023-03-23T21:37:04.326Z,37.38
2023-03-23T21:39:35.664Z,30.85
2023-03-23T21:42:05.303Z,27.95
2023-03-23T21:44:35.032Z,21.40
2023-03-23T21:47:02.513Z,19.60
2023-03-23T21:49:31.521Z,19.33
2023-03-23T21:51:59.004Z,18.02
2023-03-23T21:54:30.074Z,18.58
2023-03-23T21:56:58.543Z,18.10
2023-03-23T21:59:26.345Z,17.20
2023-03-23T22:01:54.873Z,17.20
2023-03-23T22:04:22.313Z,16.38
2023-03-23T22:06:53.175Z,16.17
2023-03-23T22:09:20.548Z,16.75
2023-03-23T22:11:47.966Z,14.27
2023-03-23T22:14:15.397Z,13.77
2023-03-23T22:16:43.151Z,14.25
2023-03-23T22:19:10.545Z,14.57
2023-03-23T22:21:37.938Z,14.38
2023-03-23T22:24:05.933Z,13.90
2023-03-23T22:26:33.281Z,13.02
2023-03-23T22:29:07.356Z,12.45
2023-03-23T22:31:37.921Z,13.02
2023-03-23T22:34:05.621Z,11.80
2023-03-23T22:36:33.389Z,12.48
2023-03-23T22:39:00.920Z,12.13
2023-03-23T22:41:31.022Z,13.05
2023-03-23T22:43:58.901Z,12.63
2023-03-23T22:46:26.271Z,11.85
2023-03-23T22:48:53.554Z,13.18
2023-03-23T22:51:21.501Z,12.65
2023-03-23T22:53:49.741Z,11.73
2023-03-23T22:56:18.721Z,12.77
2023-03-23T22:58:46.704Z,13.20
2023-03-23T23:01:21.522Z,13.75
2023-03-23T23:03:49.011Z,13.82
2023-03-23T23:06:17.072Z,15.48
2023-03-23T23:08:44.690Z,13.18
2023-03-23T23:11:14.117Z,14.10
2023-03-23T23:13:41.744Z,13.63
2023-03-23T23:16:11.519Z,12.13
2023-03-23T23:18:40.584Z,13.07
2023-03-23T23:21:14.506Z,12.30
2023-03-23T23:26:09.780Z,11.13
2023-03-23T23:28:37.062Z,10.75
2023-03-23T23:31:06.372Z,10.57
2023-03-23T23:33:33.685Z,11.43
2023-03-23T23:36:01.657Z,10.75
2023-03-23T23:38:29.410Z,11.45
2023-03-23T23:40:59.803Z,12.93
2023-03-23T23:43:28.351Z,11.10
2023-03-23T23:45:56.074Z,12.00
2023-03-23T23:48:23.349Z,11.13
2023-03-23T23:50:51.559Z,10.75
2023-03-23T23:53:22.832Z,11.23
2023-03-23T23:55:50.943Z,10.20
2023-03-23T23:58:20.626Z,9.65
